Time;durP1;ratioP1;P1;durP2;ratioP2;P2;SDS_P1;SDS_P2;PMS_P1;PMS_P2;Temp;Humidity;BMP_temperature;BMP_pressure;BME280_temperature;BME280_humidity;BME280_pressure;Samples;Min_cycle;Max_cycle;Signal;HPM_P1;HPM_P2
2022/01/12 00:01:43;;;;;;;9.27;6.10;;;;;;;;;;5082776;28;20769;-57
2022/01/12 00:04:10;;;;;;;7.20;5.80;;;;;;;;;;5085807;28;20431;-57
2022/01/12 00:06:36;;;;;;;9.13;5.87;;;;;;;;;;5085587;28;20515;-58
2022/01/12 00:09:06;;;;;;;9.33;5.43;;;;;;;;;;5088534;28;20480;-58
2022/01/12 00:11:33;;;;;;;10.63;5.67;;;;;;;;;;5095295;28;20412;-58
2022/01/12 00:13:59;;;;;;;6.63;5.23;;;;;;;;;;5089353;28;20467;-58
2022/01/12 00:16:25;;;;;;;7.97;5.10;;;;;;;;;;5085706;28;20492;-58
2022/01/12 00:18:52;;;;;;;7.50;5.63;;;;;;;;;;5084580;28;20465;-58
2022/01/12 00:21:18;;;;;;;7.13;5.23;;;;;;;;;;5085083;28;20471;-58
2022/01/12 00:23:44;;;;;;;7.30;5.80;;;;;;;;;;5071361;28;20433;-58
2022/01/12 00:26:13;;;;;;;7.50;4.67;;;;;;;;;;5085361;28;20430;-58
2022/01/12 00:33:09;;;;;;;6.23;5.00;;;;;;;;;;5064466;28;20409;-58
2022/01/12 00:34:29;;;;;;;5.60;4.60;;;;;;;;;;5074624;28;20912;-58
2022/01/12 00:36:55;;;;;;;7.47;5.13;;;;;;;;;;5084878;28;20486;-58
2022/01/12 00:39:21;;;;;;;6.93;5.57;;;;;;;;;;5084628;28;20421;-58
2022/01/12 00:41:47;;;;;;;6.63;5.30;;;;;;;;;;5085245;28;20912;-58
2022/01/12 00:44:22;;;;;;;9.63;5.70;;;;;;;;;;5084190;28;20425;-58
2022/01/12 00:46:49;;;;;;;6.80;5.37;;;;;;;;;;5083944;28;20461;-58
2022/01/12 00:49:15;;;;;;;6.60;5.50;;;;;;;;;;5084079;28;20461;-58
2022/01/12 00:51:42;;;;;;;8.83;5.43;;;;;;;;;;5084599;28;20453;-58
2022/01/12 00:54:08;;;;;;;5.80;4.87;;;;;;;;;;5084530;28;20262;-58
2022/01/12 00:56:34;;;;;;;6.50;5.10;;;;;;;;;;5067467;28;20459;-58
2022/01/12 00:59:01;;;;;;;7.37;5.27;;;;;;;;;;5065339;28;20537;-58
2022/01/12 01:01:27;;;;;;;8.00;4.90;;;;;;;;;;5064889;28;20513;-58
2022/01/12 01:03:54;;;;;;;6.80;5.90;;;;;;;;;;5067391;28;20422;-58
2022/01/12 01:06:20;;;;;;;8.97;6.20;;;;;;;;;;5067005;28;20519;-58
2022/01/12 01:08:50;;;;;;;6.90;5.67;;;;;;;;;;5072183;28;20423;-58
2022/01/12 01:11:16;;;;;;;6.07;5.10;;;;;;;;;;5069663;28;20407;-58
2022/01/12 01:13:57;;;;;;;5.77;4.70;;;;;;;;;;5075599;28;20418;-58
2022/01/12 01:27:23;;;;;;;6.63;5.20;;;;;;;;;;5070382;28;20480;-58
2022/01/12 01:29:52;;;;;;;7.27;5.70;;;;;;;;;;5068137;28;20418;-58
2022/01/12 01:32:18;;;;;;;5.47;4.70;;;;;;;;;;5053272;28;20798;-59
2022/01/12 01:34:47;;;;;;;6.73;5.20;;;;;;;;;;5069343;28;20419;-58
2022/01/12 01:37:13;;;;;;;7.57;5.93;;;;;;;;;;5070290;28;20984;-58
2022/01/12 01:39:39;;;;;;;9.93;5.70;;;;;;;;;;5053406;28;20731;-58
2022/01/12 01:42:15;;;;;;;9.13;5.17;;;;;;;;;;5072803;28;20198;-58
2022/01/12 01:55:26;;;;;;;8.00;5.37;;;;;;;;;;5067942;28;20488;-58
2022/01/12 01:57:52;;;;;;;7.57;5.57;;;;;;;;;;5065502;28;20502;-58
2022/01/12 02:00:20;;;;;;;7.97;6.13;;;;;;;;;;5059608;28;20469;-58
2022/01/12 02:02:46;;;;;;;7.63;5.50;;;;;;;;;;5064557;28;20489;-58
2022/01/12 02:05:13;;;;;;;7.03;5.60;;;;;;;;;;5067788;28;20783;-58
2022/01/12 02:07:39;;;;;;;8.50;6.07;;;;;;;;;;5062083;28;20528;-58
2022/01/12 02:10:05;;;;;;;7.13;5.90;;;;;;;;;;5065640;28;20437;-58
2022/01/12 02:12:31;;;;;;;8.20;5.57;;;;;;;;;;5065702;28;20427;-58
2022/01/12 02:15:00;;;;;;;9.23;5.53;;;;;;;;;;5063137;28;20423;-58
2022/01/12 02:17:32;;;;;;;8.33;5.60;;;;;;;;;;5066651;28;20442;-58
2022/01/12 02:36:31;;;;;;;8.03;6.00;;;;;;;;;;5066867;28;20414;-58
2022/01/12 02:41:42;;;;;;;9.33;6.10;;;;;;;;;;5059293;28;20422;-58
2022/01/12 02:54:41;;;;;;;7.97;6.47;;;;;;;;;;5062286;28;20435;-58
2022/01/12 02:57:07;;;;;;;7.10;5.73;;;;;;;;;;5076162;28;20534;-58
2022/01/12 02:59:33;;;;;;;7.33;5.20;;;;;;;;;;5070140;28;20422;-58
2022/01/12 03:04:29;;;;;;;7.83;6.10;;;;;;;;;;5067577;28;20191;-58
2022/01/12 03:07:04;;;;;;;9.30;6.13;;;;;;;;;;5067592;28;20871;-58
2022/01/12 03:09:30;;;;;;;7.83;6.00;;;;;;;;;;5070003;28;20410;-57
2022/01/12 03:11:56;;;;;;;7.70;5.67;;;;;;;;;;5071054;28;20493;-58
2022/01/12 03:14:22;;;;;;;9.50;6.67;;;;;;;;;;5070244;28;20568;-58
2022/01/12 03:16:48;;;;;;;10.27;6.07;;;;;;;;;;5053865;28;20180;-58
2022/01/12 03:19:14;;;;;;;7.93;5.77;;;;;;;;;;5071398;28;20515;-58
2022/01/12 03:21:40;;;;;;;7.93;5.67;;;;;;;;;;5067655;28;20183;-58
2022/01/12 03:24:07;;;;;;;8.83;6.17;;;;;;;;;;5068479;28;20422;-58
2022/01/12 03:26:34;;;;;;;7.30;5.73;;;;;;;;;;5065513;28;20219;-58
2022/01/12 03:29:00;;;;;;;6.00;5.33;;;;;;;;;;5049495;28;20934;-58
2022/01/12 03:31:29;;;;;;;6.97;5.90;;;;;;;;;;5072138;28;20422;-58
2022/01/12 03:34:41;;;;;;;7.93;5.67;;;;;;;;;;5066879;28;20414;-58
2022/01/12 03:37:16;;;;;;;6.67;5.47;;;;;;;;;;5057889;28;20430;-58
2022/01/12 03:39:37;;;;;;;9.07;6.33;;;;;;;;;;5064483;28;20431;-58
2022/01/12 03:42:03;;;;;;;7.87;5.70;;;;;;;;;;5071672;28;20423;-58
2022/01/12 03:44:29;;;;;;;9.57;6.23;;;;;;;;;;5062497;28;20467;-58
2022/01/12 03:46:55;;;;;;;7.23;5.80;;;;;;;;;;5076508;28;20495;-58
2022/01/12 03:49:21;;;;;;;6.87;5.30;;;;;;;;;;5061034;28;20518;-58
2022/01/12 03:51:48;;;;;;;8.90;6.87;;;;;;;;;;5072147;28;20947;-58
2022/01/12 03:54:15;;;;;;;7.20;5.83;;;;;;;;;;5067277;28;20510;-58
2022/01/12 03:56:41;;;;;;;9.40;5.43;;;;;;;;;;5097580;28;20461;-58
2022/01/12 03:59:07;;;;;;;7.30;5.70;;;;;;;;;;5089338;28;20430;-58
2022/01/12 04:01:34;;;;;;;8.17;6.13;;;;;;;;;;5085557;28;20421;-58
2022/01/12 04:04:04;;;;;;;7.53;5.40;;;;;;;;;;5089095;28;20427;-58
2022/01/12 04:09:16;;;;;;;7.50;5.20;;;;;;;;;;5092974;28;20482;-58
2022/01/12 04:11:42;;;;;;;10.40;6.50;;;;;;;;;;5091472;28;20414;-58
2022/01/12 04:14:08;;;;;;;8.60;5.57;;;;;;;;;;5085449;28;20413;-58
2022/01/12 04:16:34;;;;;;;7.90;6.30;;;;;;;;;;5084468;28;20430;-58
2022/01/12 04:19:00;;;;;;;8.40;5.83;;;;;;;;;;5088051;28;20667;-58
2022/01/12 04:21:29;;;;;;;6.20;5.40;;;;;;;;;;5084748;28;20184;-58
2022/01/12 04:23:56;;;;;;;7.20;5.80;;;;;;;;;;5086082;28;20425;-58
2022/01/12 04:26:22;;;;;;;6.73;6.10;;;;;;;;;;5090148;28;20885;-58
2022/01/12 04:28:48;;;;;;;7.87;6.27;;;;;;;;;;5087263;28;20525;-58
2022/01/12 04:31:15;;;;;;;8.80;6.77;;;;;;;;;;5086093;28;20426;-58
2022/01/12 04:33:41;;;;;;;8.03;5.90;;;;;;;;;;5086031;28;20176;-58
2022/01/12 04:36:08;;;;;;;7.27;5.97;;;;;;;;;;5090764;28;20435;-58
2022/01/12 04:38:35;;;;;;;7.17;5.80;;;;;;;;;;5071167;28;20432;-58
2022/01/12 04:41:02;;;;;;;8.53;6.00;;;;;;;;;;5084488;28;20472;-58
2022/01/12 04:43:28;;;;;;;8.53;6.10;;;;;;;;;;5083353;28;20509;-58
2022/01/12 04:50:49;;;;;;;9.03;6.40;;;;;;;;;;5090641;28;20453;-58
2022/01/12 04:53:16;;;;;;;11.27;7.03;;;;;;;;;;5098131;28;20436;-58
2022/01/12 04:55:42;;;;;;;8.03;5.63;;;;;;;;;;5085204;28;20465;-58
2022/01/12 04:58:09;;;;;;;8.60;5.93;;;;;;;;;;5077595;28;20424;-58
2022/01/12 05:00:35;;;;;;;8.80;6.37;;;;;;;;;;5072810;28;20434;-58
2022/01/12 05:13:44;;;;;;;8.30;6.00;;;;;;;;;;5074723;28;20530;-58
2022/01/12 05:16:10;;;;;;;6.67;5.73;;;;;;;;;;5069398;28;20855;-58
2022/01/12 05:18:37;;;;;;;8.77;6.03;;;;;;;;;;5071198;28;20432;-58
2022/01/12 05:21:03;;;;;;;7.70;5.83;;;;;;;;;;5073685;28;20450;-58
2022/01/12 05:23:29;;;;;;;7.87;6.50;;;;;;;;;;5075708;28;20415;-58
2022/01/12 05:25:55;;;;;;;7.97;6.17;;;;;;;;;;5069695;28;20419;-58
2022/01/12 05:28:22;;;;;;;8.93;6.50;;;;;;;;;;5073891;28;20462;-58
2022/01/12 05:30:48;;;;;;;8.77;6.23;;;;;;;;;;5074581;28;20453;-58
2022/01/12 05:33:14;;;;;;;9.63;7.40;;;;;;;;;;5070520;28;20415;-58
2022/01/12 05:35:42;;;;;;;8.20;6.07;;;;;;;;;;5055505;28;20449;-58
2022/01/12 05:38:09;;;;;;;8.33;6.47;;;;;;;;;;5067975;28;20480;-58
2022/01/12 05:40:35;;;;;;;7.43;6.07;;;;;;;;;;5067297;28;20468;-57
2022/01/12 05:43:02;;;;;;;8.50;6.00;;;;;;;;;;5065871;28;20446;-57
2022/01/12 05:45:30;;;;;;;8.40;6.97;;;;;;;;;;5066519;28;20931;-58
2022/01/12 05:50:23;;;;;;;8.10;5.97;;;;;;;;;;5067412;28;20431;-58
2022/01/12 05:52:49;;;;;;;7.03;6.03;;;;;;;;;;5069650;28;20717;-58
2022/01/12 05:55:15;;;;;;;7.17;6.17;;;;;;;;;;5068926;28;20836;-58
2022/01/12 05:57:42;;;;;;;7.53;6.60;;;;;;;;;;5064121;28;20455;-58
2022/01/12 06:00:09;;;;;;;9.10;6.50;;;;;;;;;;5059553;28;20469;-58
2022/01/12 06:02:36;;;;;;;9.73;6.27;;;;;;;;;;5065414;28;20967;-58
2022/01/12 06:05:02;;;;;;;6.77;5.97;;;;;;;;;;5066266;28;20901;-58
2022/01/12 06:07:28;;;;;;;7.87;6.20;;;;;;;;;;5067359;28;20485;-58
2022/01/12 06:09:55;;;;;;;10.27;6.67;;;;;;;;;;5066560;28;20443;-58
2022/01/12 06:12:21;;;;;;;7.07;6.10;;;;;;;;;;5066645;28;20826;-58
2022/01/12 06:14:47;;;;;;;8.13;5.70;;;;;;;;;;5067016;28;20909;-58
2022/01/12 06:17:13;;;;;;;8.50;6.27;;;;;;;;;;5065504;28;20415;-58
2022/01/12 06:19:39;;;;;;;7.63;6.40;;;;;;;;;;5066011;28;20430;-58
2022/01/12 06:22:06;;;;;;;8.23;6.30;;;;;;;;;;5047528;28;20418;-58
2022/01/12 06:24:32;;;;;;;7.27;5.60;;;;;;;;;;5067240;28;20430;-58
2022/01/12 06:26:58;;;;;;;7.20;5.57;;;;;;;;;;5066974;28;20458;-58
2022/01/12 06:29:40;;;;;;;11.00;6.97;;;;;;;;;;5066113;28;20812;-58
2022/01/12 06:32:07;;;;;;;7.37;6.33;;;;;;;;;;5060626;28;20883;-58
2022/01/12 06:34:33;;;;;;;9.27;5.77;;;;;;;;;;5047799;28;20423;-58
2022/01/12 06:36:59;;;;;;;9.50;6.17;;;;;;;;;;5066487;28;20426;-59
2022/01/12 06:39:26;;;;;;;8.17;5.87;;;;;;;;;;5066257;28;20897;-58
2022/01/12 06:41:54;;;;;;;12.97;6.50;;;;;;;;;;5067263;28;20415;-58
2022/01/12 06:44:20;;;;;;;7.00;6.30;;;;;;;;;;5065518;28;20902;-58
2022/01/12 06:46:47;;;;;;;8.53;6.63;;;;;;;;;;5065609;28;20462;-58
2022/01/12 06:49:15;;;;;;;8.87;6.73;;;;;;;;;;5064392;28;20453;-58
2022/01/12 06:51:41;;;;;;;9.10;7.00;;;;;;;;;;5049837;28;20419;-58
2022/01/12 06:54:07;;;;;;;9.67;6.60;;;;;;;;;;5063718;28;20471;-58
2022/01/12 06:56:34;;;;;;;8.07;5.87;;;;;;;;;;5084854;28;21036;-58
2022/01/12 06:59:00;;;;;;;8.80;5.80;;;;;;;;;;5083782;28;20741;-58
2022/01/12 07:01:26;;;;;;;6.87;5.83;;;;;;;;;;5080349;28;20456;-58
2022/01/12 07:03:52;;;;;;;8.50;6.40;;;;;;;;;;5084414;28;20422;-58
2022/01/12 07:06:18;;;;;;;9.80;6.30;;;;;;;;;;5083414;28;20912;-58
2022/01/12 07:08:44;;;;;;;10.90;7.03;;;;;;;;;;5063570;28;20442;-58
2022/01/12 07:11:10;;;;;;;8.77;6.33;;;;;;;;;;5077527;28;20458;-58
2022/01/12 07:13:36;;;;;;;11.70;6.73;;;;;;;;;;5068115;28;20568;-59
2022/01/12 07:16:03;;;;;;;10.17;6.83;;;;;;;;;;5081549;28;20418;-58
2022/01/12 07:18:29;;;;;;;8.67;6.10;;;;;;;;;;5082258;28;20435;-59
2022/01/12 07:20:58;;;;;;;8.50;6.53;;;;;;;;;;5082046;28;20641;-58
2022/01/12 07:23:25;;;;;;;10.00;6.83;;;;;;;;;;5082608;28;20418;-58
2022/01/12 07:25:51;;;;;;;12.47;7.03;;;;;;;;;;5085532;28;20424;-58
2022/01/12 07:28:18;;;;;;;9.20;6.93;;;;;;;;;;5087266;28;20479;-58
2022/01/12 07:30:44;;;;;;;9.60;7.43;;;;;;;;;;5085221;28;20485;-58
2022/01/12 07:33:10;;;;;;;9.03;7.00;;;;;;;;;;5082148;28;20985;-58
2022/01/12 07:35:36;;;;;;;8.93;6.70;;;;;;;;;;5072446;28;20461;-58
2022/01/12 07:38:03;;;;;;;8.23;6.03;;;;;;;;;;5075578;28;20503;-58
2022/01/12 07:40:29;;;;;;;8.87;6.40;;;;;;;;;;5081895;28;20417;-58
2022/01/12 07:42:55;;;;;;;7.93;6.47;;;;;;;;;;5061738;28;20440;-58
2022/01/12 07:45:21;;;;;;;9.40;6.90;;;;;;;;;;5081222;28;20429;-58
2022/01/12 07:47:48;;;;;;;10.97;6.83;;;;;;;;;;5083299;28;20807;-58
2022/01/12 07:50:14;;;;;;;7.77;6.10;;;;;;;;;;5086015;28;20176;-58
2022/01/12 07:52:40;;;;;;;8.10;6.30;;;;;;;;;;5086198;28;20466;-58
2022/01/12 07:55:07;;;;;;;8.57;6.50;;;;;;;;;;5076693;28;20458;-58
2022/01/12 07:57:33;;;;;;;9.17;6.63;;;;;;;;;;5063982;28;20294;-58
2022/01/12 07:59:59;;;;;;;7.10;6.23;;;;;;;;;;5074564;28;20655;-58
2022/01/12 08:02:25;;;;;;;12.80;5.87;;;;;;;;;;5068481;28;20454;-58
2022/01/12 08:04:51;;;;;;;9.70;7.17;;;;;;;;;;5066306;28;20414;-58
2022/01/12 08:07:17;;;;;;;8.27;6.40;;;;;;;;;;5061077;28;20889;-58
2022/01/12 08:09:44;;;;;;;9.53;7.00;;;;;;;;;;5070924;28;20928;-58
2022/01/12 08:12:10;;;;;;;10.77;6.87;;;;;;;;;;5068780;28;20866;-58
2022/01/12 08:14:36;;;;;;;9.17;7.10;;;;;;;;;;5071130;28;20920;-58
2022/01/12 08:17:03;;;;;;;7.23;6.30;;;;;;;;;;5081104;28;20515;-58
2022/01/12 08:19:30;;;;;;;8.50;6.23;;;;;;;;;;5067668;28;20414;-58
2022/01/12 08:21:56;;;;;;;8.43;6.47;;;;;;;;;;5072397;28;20556;-58
2022/01/12 08:24:22;;;;;;;11.07;6.77;;;;;;;;;;5076770;28;20543;-58
2022/01/12 08:26:49;;;;;;;9.40;6.67;;;;;;;;;;5078425;28;20860;-58
2022/01/12 08:29:16;;;;;;;10.50;7.40;;;;;;;;;;5082616;28;20263;-58
2022/01/12 08:31:43;;;;;;;9.50;7.23;;;;;;;;;;5082878;28;20508;-58
2022/01/12 08:34:10;;;;;;;8.50;7.23;;;;;;;;;;5076011;28;20470;-58
2022/01/12 08:36:36;;;;;;;9.03;7.67;;;;;;;;;;5077657;28;20818;-58
2022/01/12 08:39:03;;;;;;;10.00;7.40;;;;;;;;;;5072945;28;20537;-58
2022/01/12 08:41:29;;;;;;;9.30;6.73;;;;;;;;;;5074364;28;20433;-58
2022/01/12 08:43:55;;;;;;;10.13;7.53;;;;;;;;;;5068611;28;20646;-58
2022/01/12 08:46:21;;;;;;;10.03;7.60;;;;;;;;;;5072417;28;20418;-58
2022/01/12 08:48:47;;;;;;;8.73;7.03;;;;;;;;;;5072152;28;20434;-58
2022/01/12 08:51:13;;;;;;;10.93;7.73;;;;;;;;;;5088247;28;20436;-58
2022/01/12 08:53:39;;;;;;;11.90;8.03;;;;;;;;;;5077901;28;20430;-58
2022/01/12 08:56:05;;;;;;;11.87;8.20;;;;;;;;;;5083743;28;20522;-58
2022/01/12 08:58:31;;;;;;;13.13;8.27;;;;;;;;;;5092445;28;20490;-58
2022/01/12 09:01:03;;;;;;;13.13;9.03;;;;;;;;;;5088493;28;20414;-58
2022/01/12 09:03:29;;;;;;;14.93;9.33;;;;;;;;;;5087593;28;20436;-58
2022/01/12 09:05:55;;;;;;;10.97;7.97;;;;;;;;;;5091744;28;20495;-58
2022/01/12 09:08:21;;;;;;;14.17;9.10;;;;;;;;;;5072791;28;20824;-58
2022/01/12 09:10:47;;;;;;;15.03;8.73;;;;;;;;;;5089473;28;20418;-60
2022/01/12 09:13:13;;;;;;;12.43;8.53;;;;;;;;;;5073160;28;20413;-58
2022/01/12 09:15:39;;;;;;;12.73;9.53;;;;;;;;;;5091707;28;20967;-58
2022/01/12 09:18:05;;;;;;;14.17;9.30;;;;;;;;;;5091664;28;20419;-58
2022/01/12 09:20:32;;;;;;;13.17;9.00;;;;;;;;;;5084403;28;20489;-58
2022/01/12 09:22:58;;;;;;;14.23;10.07;;;;;;;;;;5092353;28;20413;-58
2022/01/12 09:25:25;;;;;;;18.37;9.40;;;;;;;;;;5091431;28;20437;-58
2022/01/12 09:27:51;;;;;;;13.37;9.67;;;;;;;;;;5092781;28;20457;-58
2022/01/12 09:30:23;;;;;;;13.60;10.07;;;;;;;;;;5082836;28;20435;-58
2022/01/12 09:32:49;;;;;;;13.77;9.63;;;;;;;;;;5090613;28;20746;-58
2022/01/12 09:35:15;;;;;;;13.27;9.57;;;;;;;;;;5088348;28;20414;-58
2022/01/12 09:37:41;;;;;;;12.80;8.60;;;;;;;;;;5084558;28;20184;-58
2022/01/12 09:40:08;;;;;;;14.00;8.93;;;;;;;;;;5086188;28;20956;-58
2022/01/12 09:42:34;;;;;;;14.17;9.13;;;;;;;;;;5081901;28;20417;-58
2022/01/12 09:45:01;;;;;;;14.50;9.50;;;;;;;;;;5088855;28;20429;-58
2022/01/12 09:47:28;;;;;;;12.70;10.13;;;;;;;;;;5087797;28;20662;-58
2022/01/12 09:49:54;;;;;;;17.77;9.50;;;;;;;;;;5088489;28;20415;-58
2022/01/12 09:52:21;;;;;;;13.27;9.23;;;;;;;;;;5070569;28;20428;-58
2022/01/12 09:54:47;;;;;;;17.63;9.97;;;;;;;;;;5085050;28;20696;-58
2022/01/12 09:57:13;;;;;;;19.43;9.93;;;;;;;;;;5088073;28;20477;-58
2022/01/12 09:59:39;;;;;;;17.33;11.23;;;;;;;;;;5088142;28;20188;-58
2022/01/12 10:02:13;;;;;;;17.77;10.53;;;;;;;;;;5086446;28;20977;-58
2022/01/12 10:04:39;;;;;;;18.13;11.17;;;;;;;;;;5081076;28;20230;-58
2022/01/12 10:07:05;;;;;;;18.90;11.90;;;;;;;;;;5080891;28;20992;-58
2022/01/12 10:09:34;;;;;;;18.47;11.20;;;;;;;;;;5087356;28;20172;-58
2022/01/12 10:12:01;;;;;;;15.60;10.20;;;;;;;;;;5076823;28;21275;-58
2022/01/12 10:14:47;;;;;;;20.10;11.93;;;;;;;;;;5086902;28;20414;-58
2022/01/12 10:17:14;;;;;;;20.03;11.27;;;;;;;;;;5081284;28;20516;-58
2022/01/12 10:19:41;;;;;;;17.60;11.50;;;;;;;;;;5087478;28;20421;-59
2022/01/12 10:22:09;;;;;;;19.23;12.13;;;;;;;;;;5087342;28;20421;-58
2022/01/12 10:24:39;;;;;;;20.40;12.10;;;;;;;;;;5085505;28;20434;-58
2022/01/12 10:27:15;;;;;;;22.93;12.67;;;;;;;;;;5082346;28;20468;-58
2022/01/12 10:29:42;;;;;;;20.97;11.60;;;;;;;;;;5087971;28;20432;-59
2022/01/12 10:32:12;;;;;;;18.53;12.33;;;;;;;;;;5086524;28;20180;-58
2022/01/12 10:34:38;;;;;;;22.90;12.67;;;;;;;;;;5082750;28;20267;-58
2022/01/12 10:37:12;;;;;;;23.80;14.43;;;;;;;;;;5085705;28;20512;-58
2022/01/12 10:39:39;;;;;;;24.53;13.50;;;;;;;;;;5088042;28;20426;-58
2022/01/12 10:42:10;;;;;;;24.57;12.83;;;;;;;;;;5087694;28;20948;-58
2022/01/12 10:44:38;;;;;;;21.53;13.20;;;;;;;;;;5081955;28;20421;-58
2022/01/12 10:47:09;;;;;;;29.73;13.77;;;;;;;;;;5087034;28;20454;-58
2022/01/12 10:49:37;;;;;;;23.20;13.87;;;;;;;;;;5079885;28;20422;-58
2022/01/12 10:52:04;;;;;;;16.57;11.87;;;;;;;;;;5081817;28;20446;-58
2022/01/12 10:54:30;;;;;;;26.87;12.70;;;;;;;;;;5082715;28;20913;-58
2022/01/12 10:56:56;;;;;;;21.10;12.73;;;;;;;;;;5087468;28;20203;-58
2022/01/12 10:59:22;;;;;;;25.03;13.27;;;;;;;;;;5086875;28;20410;-58
2022/01/12 11:01:49;;;;;;;19.70;11.93;;;;;;;;;;5085752;28;20424;-59
2022/01/12 11:04:15;;;;;;;24.77;13.27;;;;;;;;;;5087300;28;20426;-58
2022/01/12 11:06:41;;;;;;;23.37;13.33;;;;;;;;;;5081731;28;20474;-58
2022/01/12 11:09:07;;;;;;;24.87;12.90;;;;;;;;;;5065210;28;20427;-58
2022/01/12 11:11:34;;;;;;;26.00;13.30;;;;;;;;;;5078016;28;20411;-58
2022/01/12 11:14:01;;;;;;;25.30;13.80;;;;;;;;;;5068649;28;20444;-58
2022/01/12 11:16:28;;;;;;;21.70;12.80;;;;;;;;;;5086084;28;20413;-58
2022/01/12 11:18:55;;;;;;;24.00;13.77;;;;;;;;;;5068551;28;20244;-59
2022/01/12 11:21:30;;;;;;;21.90;13.23;;;;;;;;;;5069379;28;20445;-59
2022/01/12 11:23:59;;;;;;;25.60;13.17;;;;;;;;;;5081092;28;20666;-58
2022/01/12 11:26:27;;;;;;;28.13;14.77;;;;;;;;;;5080565;28;20456;-59
2022/01/12 11:28:54;;;;;;;23.87;12.80;;;;;;;;;;5086119;28;20568;-58
2022/01/12 11:31:25;;;;;;;26.03;15.47;;;;;;;;;;5083936;28;20770;-59
2022/01/12 11:33:51;;;;;;;22.07;13.47;;;;;;;;;;5086238;28;20916;-58
2022/01/12 11:36:27;;;;;;;29.13;14.30;;;;;;;;;;5085776;28;20417;-58
2022/01/12 11:39:06;;;;;;;25.80;13.60;;;;;;;;;;5076017;28;20424;-59
2022/01/12 11:41:33;;;;;;;28.37;13.80;;;;;;;;;;5087022;28;20425;-59
2022/01/12 11:43:59;;;;;;;23.50;14.27;;;;;;;;;;5085668;28;20426;-59
2022/01/12 11:46:26;;;;;;;31.30;14.67;;;;;;;;;;5084455;28;20716;-59
2022/01/12 11:48:57;;;;;;;19.77;14.10;;;;;;;;;;5081741;28;20199;-59
2022/01/12 11:51:34;;;;;;;26.80;15.00;;;;;;;;;;5084077;28;20421;-58
2022/01/12 11:54:11;;;;;;;28.40;13.90;;;;;;;;;;5080389;28;20567;-59
2022/01/12 11:56:38;;;;;;;26.37;15.97;;;;;;;;;;5077603;28;20716;-59
2022/01/12 11:59:09;;;;;;;26.10;14.30;;;;;;;;;;5083912;28;20425;-58
2022/01/12 12:01:37;;;;;;;31.90;16.27;;;;;;;;;;5078295;28;20495;-59
2022/01/12 12:04:04;;;;;;;27.50;15.13;;;;;;;;;;5067073;28;20836;-59
2022/01/12 12:06:30;;;;;;;29.73;15.53;;;;;;;;;;5084385;28;20432;-59
2022/01/12 12:09:10;;;;;;;32.73;15.10;;;;;;;;;;5086464;28;20422;-59
2022/01/12 12:11:36;;;;;;;29.77;17.00;;;;;;;;;;5085947;28;20971;-59
2022/01/12 12:14:06;;;;;;;27.83;16.17;;;;;;;;;;5079425;28;20207;-58
2022/01/12 12:16:33;;;;;;;27.77;15.77;;;;;;;;;;5065881;28;20365;-59
2022/01/12 12:19:00;;;;;;;28.00;16.37;;;;;;;;;;5079711;28;20168;-59
2022/01/12 12:21:26;;;;;;;29.50;16.93;;;;;;;;;;5079097;28;20172;-59
2022/01/12 12:23:53;;;;;;;26.53;15.00;;;;;;;;;;5079412;28;20516;-59
2022/01/12 12:26:19;;;;;;;33.10;16.90;;;;;;;;;;5086896;28;20183;-59
2022/01/12 12:28:55;;;;;;;32.37;17.13;;;;;;;;;;5078275;28;21031;-59
2022/01/12 12:31:22;;;;;;;29.87;15.83;;;;;;;;;;5086049;28;20413;-59
2022/01/12 12:33:58;;;;;;;32.83;15.53;;;;;;;;;;5078021;28;20426;-59
2022/01/12 12:36:25;;;;;;;27.53;16.83;;;;;;;;;;5068086;28;20988;-59
2022/01/12 12:38:51;;;;;;;32.07;15.77;;;;;;;;;;5074583;28;20184;-59
2022/01/12 12:41:17;;;;;;;28.73;16.00;;;;;;;;;;5086244;28;20545;-59
2022/01/12 12:43:45;;;;;;;31.50;18.07;;;;;;;;;;5081468;28;20434;-59
2022/01/12 12:46:13;;;;;;;35.70;17.00;;;;;;;;;;5085170;28;20260;-59
2022/01/12 12:48:40;;;;;;;32.67;16.53;;;;;;;;;;5066996;28;20207;-59
2022/01/12 12:51:07;;;;;;;31.07;17.40;;;;;;;;;;5082216;28;20187;-59
2022/01/12 12:53:34;;;;;;;32.07;17.17;;;;;;;;;;5082541;28;20477;-59
2022/01/12 12:56:01;;;;;;;32.73;16.67;;;;;;;;;;5083993;28;20235;-59
2022/01/12 12:58:28;;;;;;;25.83;15.93;;;;;;;;;;5084728;28;20643;-59
2022/01/12 13:01:03;;;;;;;30.67;18.10;;;;;;;;;;5085240;28;20980;-59
2022/01/12 13:03:29;;;;;;;34.83;18.67;;;;;;;;;;5084514;28;20827;-59
2022/01/12 13:05:55;;;;;;;34.23;18.83;;;;;;;;;;5079167;28;20241;-60
2022/01/12 13:08:24;;;;;;;33.03;17.47;;;;;;;;;;5086010;28;20200;-59
2022/01/12 13:10:50;;;;;;;42.20;17.80;;;;;;;;;;5089518;28;20217;-59
2022/01/12 13:13:16;;;;;;;40.57;18.63;;;;;;;;;;5070347;28;20176;-59
2022/01/12 13:15:43;;;;;;;37.07;17.83;;;;;;;;;;5084913;28;20519;-59
2022/01/12 13:18:15;;;;;;;40.00;19.37;;;;;;;;;;5088178;28;20200;-59
2022/01/12 13:23:37;;;;;;;30.80;17.37;;;;;;;;;;5063566;28;20452;-59
2022/01/12 13:26:07;;;;;;;35.83;19.13;;;;;;;;;;5080287;28;20410;-59
2022/01/12 13:28:34;;;;;;;41.87;19.87;;;;;;;;;;5089741;28;20331;-59
2022/01/12 13:31:01;;;;;;;38.00;19.60;;;;;;;;;;5087871;28;20687;-59
2022/01/12 13:33:32;;;;;;;30.30;17.83;;;;;;;;;;5086450;28;20643;-59
2022/01/12 13:36:01;;;;;;;35.07;19.30;;;;;;;;;;5086351;28;20198;-59
2022/01/12 13:38:30;;;;;;;33.57;18.60;;;;;;;;;;5077452;28;20449;-59
2022/01/12 13:40:56;;;;;;;35.80;19.57;;;;;;;;;;5064515;28;20998;-59
2022/01/12 13:43:24;;;;;;;38.80;19.57;;;;;;;;;;5085574;28;20823;-58
2022/01/12 13:45:59;;;;;;;32.70;19.57;;;;;;;;;;5084079;28;20268;-59
2022/01/12 13:48:32;;;;;;;34.43;18.87;;;;;;;;;;5068949;28;20475;-59
2022/01/12 13:50:59;;;;;;;32.10;18.87;;;;;;;;;;5070340;28;20493;-59
2022/01/12 13:53:38;;;;;;;36.67;20.03;;;;;;;;;;5086316;28;20924;-59
2022/01/12 13:56:05;;;;;;;38.47;19.57;;;;;;;;;;5082130;28;20625;-59
2022/01/12 13:58:38;;;;;;;36.90;20.10;;;;;;;;;;5063281;28;20788;-58
2022/01/12 14:01:12;;;;;;;33.67;19.37;;;;;;;;;;5064252;28;20673;-59
2022/01/12 14:03:50;;;;;;;36.97;19.90;;;;;;;;;;5078945;28;20418;-59
2022/01/12 14:06:18;;;;;;;32.90;17.83;;;;;;;;;;5076991;28;20413;-59
2022/01/12 14:08:53;;;;;;;36.70;19.63;;;;;;;;;;5058554;28;20454;-59
2022/01/12 14:11:20;;;;;;;37.83;19.60;;;;;;;;;;5077994;28;20449;-59
2022/01/12 14:13:46;;;;;;;35.60;19.10;;;;;;;;;;5051914;28;20171;-59
2022/01/12 14:16:13;;;;;;;39.63;20.10;;;;;;;;;;5071342;28;20176;-59
2022/01/12 14:18:39;;;;;;;37.80;19.87;;;;;;;;;;5071752;28;20245;-59
2022/01/12 14:21:15;;;;;;;36.97;20.67;;;;;;;;;;5074081;28;20181;-59
2022/01/12 14:23:41;;;;;;;36.63;19.80;;;;;;;;;;5064565;28;20542;-59
2022/01/12 14:26:08;;;;;;;33.70;19.07;;;;;;;;;;5066545;28;20178;-59
2022/01/12 14:28:35;;;;;;;39.63;20.70;;;;;;;;;;5079336;28;20192;-59
2022/01/12 14:31:01;;;;;;;34.33;19.60;;;;;;;;;;5067781;28;20643;-59
2022/01/12 14:33:27;;;;;;;30.87;19.33;;;;;;;;;;5069339;28;20176;-59
2022/01/12 14:35:54;;;;;;;39.73;21.00;;;;;;;;;;5074574;28;20525;-59
2022/01/12 14:38:20;;;;;;;40.63;22.27;;;;;;;;;;5064492;28;20680;-59
2022/01/12 14:40:46;;;;;;;39.93;22.70;;;;;;;;;;5070928;28;20214;-59
2022/01/12 14:43:12;;;;;;;35.50;19.53;;;;;;;;;;5074946;28;20168;-59
2022/01/12 14:45:40;;;;;;;38.43;19.80;;;;;;;;;;5073208;28;20181;-59
2022/01/12 14:48:07;;;;;;;37.97;21.17;;;;;;;;;;5074394;28;20787;-59
2022/01/12 14:50:33;;;;;;;38.27;21.00;;;;;;;;;;5069768;28;20207;-59
2022/01/12 14:53:00;;;;;;;36.17;20.50;;;;;;;;;;5078756;28;20713;-59
2022/01/12 14:55:27;;;;;;;55.73;24.47;;;;;;;;;;5065350;28;20750;-59
2022/01/12 14:57:54;;;;;;;53.87;24.93;;;;;;;;;;5069162;28;20288;-59
2022/01/12 15:00:24;;;;;;;44.57;21.87;;;;;;;;;;5072447;28;20580;-59
2022/01/12 15:02:51;;;;;;;45.13;23.33;;;;;;;;;;5079428;28;20168;-59
2022/01/12 15:05:17;;;;;;;43.03;22.73;;;;;;;;;;5072627;28;20667;-59
2022/01/12 15:07:43;;;;;;;46.80;23.77;;;;;;;;;;5068584;28;20236;-59
2022/01/12 15:10:10;;;;;;;39.90;22.70;;;;;;;;;;5069251;28;20180;-59
2022/01/12 15:12:38;;;;;;;43.67;23.37;;;;;;;;;;5051780;28;20181;-58
2022/01/12 15:15:07;;;;;;;43.20;23.00;;;;;;;;;;5075144;28;20211;-59
2022/01/12 15:17:34;;;;;;;44.00;22.03;;;;;;;;;;5051756;28;20172;-59
2022/01/12 15:20:02;;;;;;;41.67;22.40;;;;;;;;;;5054016;28;20192;-59
2022/01/12 15:22:31;;;;;;;41.97;22.67;;;;;;;;;;5076870;28;20187;-59
2022/01/12 15:24:57;;;;;;;47.40;23.43;;;;;;;;;;5074506;28;20211;-59
2022/01/12 15:27:23;;;;;;;44.83;22.67;;;;;;;;;;5067054;28;20223;-59
2022/01/12 15:29:50;;;;;;;45.17;24.17;;;;;;;;;;5079218;28;20537;-59
2022/01/12 15:32:16;;;;;;;45.77;23.63;;;;;;;;;;5074667;28;20533;-59
2022/01/12 15:34:42;;;;;;;42.50;23.60;;;;;;;;;;5073567;28;20272;-59
2022/01/12 15:37:08;;;;;;;41.90;23.43;;;;;;;;;;5075799;28;20646;-59
2022/01/12 15:39:34;;;;;;;51.93;23.67;;;;;;;;;;5077602;28;20897;-59
2022/01/12 15:42:00;;;;;;;50.93;24.00;;;;;;;;;;5052380;28;20303;-59
2022/01/12 15:44:27;;;;;;;45.47;24.17;;;;;;;;;;5076608;28;20184;-59
2022/01/12 15:46:53;;;;;;;48.40;23.87;;;;;;;;;;5073058;28;20681;-59
2022/01/12 15:49:20;;;;;;;43.73;23.07;;;;;;;;;;5075473;28;20356;-59
2022/01/12 15:51:46;;;;;;;41.93;22.53;;;;;;;;;;5068205;28;20230;-59
2022/01/12 15:54:14;;;;;;;49.20;24.00;;;;;;;;;;5074772;28;20168;-59